createdAt,value
2023-03-04T00:08:23.163Z,69.35
2023-03-04T00:18:24.376Z,69.68
2023-03-04T00:28:25.651Z,73.82
2023-03-04T00:38:26.977Z,74.57
2023-03-04T00:48:28.387Z,77.10
2023-03-04T00:58:29.693Z,78.93
2023-03-04T01:08:30.939Z,83.28
2023-03-04T01:18:32.224Z,82.30
2023-03-04T01:28:35.857Z,88.88
2023-03-04T01:38:37.352Z,88.33
2023-03-04T01:48:38.694Z,85.57
2023-03-04T01:58:39.930Z,100.05
2023-03-04T02:08:41.161Z,88.53
2023-03-04T02:18:42.380Z,95.15
2023-03-04T02:28:43.598Z,96.55
2023-03-04T02:38:45.065Z,90.68
2023-03-04T02:48:46.417Z,95.93
2023-03-04T02:58:47.643Z,96.43
2023-03-04T03:08:48.867Z,89.75
2023-03-04T03:18:50.135Z,88.15
2023-03-04T03:28:51.350Z,86.75
2023-03-04T03:38:52.761Z,94.47
2023-03-04T03:48:54.003Z,87.57
2023-03-04T03:58:55.299Z,84.05
2023-03-04T04:08:56.578Z,86.22
2023-03-04T04:18:57.824Z,84.63
2023-03-04T04:28:59.052Z,92.55
2023-03-04T04:39:00.295Z,95.05
2023-03-04T04:49:01.561Z,87.18
2023-03-04T04:59:02.848Z,97.05
2023-03-04T05:09:04.410Z,99.53
2023-03-04T05:19:05.627Z,95.53
2023-03-04T05:29:06.849Z,95.07
2023-03-04T05:39:08.239Z,86.95
2023-03-04T05:49:09.478Z,107.47
2023-03-04T05:59:10.712Z,99.07
2023-03-04T06:09:11.938Z,100.10
2023-03-04T06:19:13.143Z,102.82
2023-03-04T06:29:14.356Z,95.63
2023-03-04T06:39:15.818Z,98.95
2023-03-04T06:49:17.115Z,93.07
2023-03-04T06:59:18.327Z,88.75
2023-03-04T07:09:19.647Z,96.35
2023-03-04T07:19:20.877Z,91.60
2023-03-04T07:29:22.123Z,96.53
2023-03-04T07:39:23.531Z,84.45
2023-03-04T07:49:24.784Z,92.47
2023-03-04T07:59:26.015Z,96.57
2023-03-04T08:09:27.359Z,99.03
2023-03-04T08:19:28.598Z,94.38
2023-03-04T08:29:29.841Z,96.80
2023-03-04T08:39:33.331Z,88.40
2023-03-04T08:49:34.939Z,82.13
2023-03-04T08:59:38.286Z,86.85
2023-03-04T09:09:39.848Z,81.30
2023-03-04T09:19:41.107Z,69.88
2023-03-04T09:29:44.412Z,75.40
2023-03-04T09:39:45.809Z,75.30
2023-03-04T09:49:47.074Z,77.20
2023-03-04T09:59:48.286Z,78.05
2023-03-04T10:09:58.682Z,76.60
2023-03-04T10:20:00.007Z,71.30
2023-03-04T10:30:01.288Z,68.45
2023-03-04T10:40:03.855Z,71.45
2023-03-04T10:50:05.093Z,69.25
2023-03-04T11:00:06.327Z,64.35
2023-03-04T11:10:07.558Z,57.63
2023-03-04T11:20:09.074Z,61.28
2023-03-04T11:30:10.400Z,61.97
2023-03-04T11:40:11.842Z,57.47
2023-03-04T11:50:13.082Z,53.47
2023-03-04T12:00:14.304Z,48.15
2023-03-04T12:10:16.139Z,47.85
2023-03-04T12:20:17.701Z,46.03
2023-03-04T12:30:19.396Z,55.00
2023-03-04T12:40:20.869Z,51.88
2023-03-04T12:50:22.144Z,37.90
2023-03-04T13:00:23.402Z,49.13
2023-03-04T13:10:25.550Z,40.25
2023-03-04T13:20:26.845Z,41.05
2023-03-04T13:30:28.102Z,42.88
2023-03-04T13:40:29.539Z,40.13
2023-03-04T13:50:34.430Z,41.50
2023-03-04T14:00:37.144Z,34.05
2023-03-04T14:10:38.379Z,40.00
2023-03-04T14:20:39.658Z,36.97
2023-03-04T14:30:43.673Z,30.85
2023-03-04T14:40:45.463Z,30.55
2023-03-04T14:50:46.688Z,31.27
2023-03-04T15:00:47.934Z,33.60
2023-03-04T15:10:49.204Z,32.58
2023-03-04T15:20:50.459Z,31.35
2023-03-04T15:30:52.154Z,33.95
2023-03-04T15:40:54.565Z,31.30
2023-03-04T15:50:55.945Z,34.17
2023-03-04T16:00:57.357Z,45.85
2023-03-04T16:10:58.730Z,44.67
2023-03-04T16:20:59.960Z,41.60
2023-03-04T16:31:01.450Z,41.13
2023-03-04T16:41:02.928Z,43.47
2023-03-04T16:51:04.240Z,47.28
2023-03-04T17:01:05.678Z,43.80
2023-03-04T17:11:06.953Z,45.55
2023-03-04T17:21:08.322Z,46.83
2023-03-04T17:31:09.915Z,48.08
2023-03-04T17:41:13.546Z,50.55
2023-03-04T17:51:14.830Z,54.95
2023-03-04T18:01:16.078Z,49.28
2023-03-04T18:11:17.424Z,49.97
2023-03-04T18:21:18.681Z,51.85
2023-03-04T18:31:19.983Z,53.17
2023-03-04T18:41:21.448Z,69.82
2023-03-04T18:51:22.661Z,48.22
2023-03-04T19:01:24.449Z,50.72
2023-03-04T19:11:26.756Z,46.55
2023-03-04T19:21:28.060Z,49.22
2023-03-04T19:31:29.332Z,43.75
2023-03-04T19:41:30.895Z,46.47
2023-03-04T19:51:32.787Z,42.35
2023-03-04T20:01:34.096Z,46.75
2023-03-04T20:11:44.070Z,44.17
2023-03-04T20:21:52.215Z,47.83
2023-03-04T20:31:53.424Z,52.90
2023-03-04T20:41:54.855Z,49.72
2023-03-04T20:51:56.245Z,42.00
2023-03-04T21:01:59.266Z,50.17
2023-03-04T21:12:01.120Z,46.88
2023-03-04T21:22:02.519Z,49.78
2023-03-04T21:32:20.830Z,49.05
2023-03-04T21:42:24.098Z,47.92
2023-03-04T21:52:25.409Z,51.40
2023-03-04T22:02:26.786Z,46.55
2023-03-04T22:12:28.022Z,46.03
2023-03-04T22:22:30.246Z,48.80
2023-03-04T22:32:31.505Z,52.33
2023-03-04T22:42:32.902Z,43.88
2023-03-04T22:52:34.124Z,47.97
2023-03-04T23:02:35.383Z,49.95
2023-03-04T23:12:36.635Z,50.33
2023-03-04T23:22:37.853Z,49.80
2023-03-04T23:32:39.062Z,47.22
2023-03-04T23:42:40.886Z,50.63
2023-03-04T23:52:42.178Z,48.17
